createdAt,value
2022-11-13T00:01:38.337Z,71.96
2022-11-13T00:04:04.925Z,72.80
2022-11-13T00:06:31.325Z,71.78
2022-11-13T00:08:57.836Z,71.76
2022-11-13T00:11:24.499Z,72.39
2022-11-13T00:13:50.984Z,72.52
2022-11-13T00:16:20.589Z,71.80
2022-11-13T00:18:48.289Z,71.18
2022-11-13T00:21:21.432Z,71.79
2022-11-13T00:23:48.191Z,71.20
2022-11-13T00:26:21.187Z,71.37
2022-11-13T00:28:47.772Z,71.10
2022-11-13T00:31:15.478Z,71.17
2022-11-13T00:36:28.984Z,71.00
2022-11-13T00:38:55.876Z,70.15
2022-11-13T00:41:23.854Z,70.81
2022-11-13T00:43:50.400Z,70.55
2022-11-13T00:46:16.891Z,70.60
2022-11-13T00:48:43.518Z,70.80
2022-11-13T00:51:10.149Z,70.85
2022-11-13T00:53:36.572Z,71.65
2022-11-13T00:56:03.435Z,71.43
2022-11-13T00:58:30.199Z,71.98
2022-11-13T01:01:06.140Z,70.70
2022-11-13T01:03:32.691Z,71.60
2022-11-13T01:06:10.319Z,70.86
2022-11-13T01:08:36.801Z,70.83
2022-11-13T01:11:09.592Z,71.34
2022-11-13T01:13:36.019Z,71.68
2022-11-13T01:16:06.824Z,71.60
2022-11-13T01:18:33.535Z,71.27
2022-11-13T01:21:09.481Z,70.70
2022-11-13T01:23:36.693Z,71.11
2022-11-13T01:26:06.422Z,70.69
2022-11-13T01:28:33.025Z,70.93
2022-11-13T01:30:59.483Z,71.03
2022-11-13T01:33:25.907Z,70.59
2022-11-13T01:35:52.317Z,71.54
2022-11-13T01:38:18.739Z,72.09
2022-11-13T01:40:46.921Z,70.58
2022-11-13T01:43:33.385Z,71.33
2022-11-13T01:45:59.741Z,71.70
2022-11-13T01:48:32.876Z,71.52
2022-11-13T01:50:59.535Z,71.24
2022-11-13T01:53:27.846Z,71.25
2022-11-13T01:55:54.532Z,70.22
2022-11-13T01:58:21.174Z,70.71
2022-11-13T02:00:47.795Z,70.65
2022-11-13T02:03:14.357Z,71.38
2022-11-13T02:05:40.803Z,71.87
2022-11-13T02:08:07.266Z,71.81
2022-11-13T02:10:33.743Z,70.92
2022-11-13T02:13:00.450Z,71.05
2022-11-13T02:15:31.974Z,71.34
2022-11-13T02:18:00.478Z,71.98
2022-11-13T02:20:48.526Z,72.51
2022-11-13T02:23:24.136Z,72.52
2022-11-13T02:25:53.376Z,73.02
2022-11-13T02:28:20.105Z,72.10
2022-11-13T02:30:46.642Z,73.30
2022-11-13T02:33:33.181Z,72.22
2022-11-13T02:36:00.030Z,72.55
2022-11-13T02:38:26.812Z,72.74
2022-11-13T02:40:53.390Z,72.26
2022-11-13T02:43:19.856Z,72.31
2022-11-13T02:45:46.322Z,72.43
2022-11-13T02:48:12.819Z,72.14
2022-11-13T02:50:39.510Z,72.82
2022-11-13T02:53:06.517Z,72.42
2022-11-13T02:55:33.193Z,72.88
2022-11-13T02:57:59.633Z,72.27
2022-11-13T03:00:26.433Z,71.69
2022-11-13T03:02:52.932Z,72.00
2022-11-13T03:05:19.475Z,72.03
2022-11-13T03:07:45.949Z,73.67
2022-11-13T03:10:12.626Z,76.38
2022-11-13T03:12:40.581Z,74.84
2022-11-13T03:15:08.751Z,72.77
2022-11-13T03:17:35.821Z,73.68
2022-11-13T03:20:02.594Z,74.06
2022-11-13T03:22:29.065Z,75.93
2022-11-13T03:24:55.530Z,76.49
2022-11-13T03:27:22.353Z,75.35
2022-11-13T03:29:48.872Z,74.29
2022-11-13T03:32:15.479Z,75.53
2022-11-13T03:34:42.313Z,73.70
2022-11-13T03:37:08.742Z,73.53
2022-11-13T03:39:35.151Z,73.70
2022-11-13T03:42:01.568Z,75.42
2022-11-13T03:44:28.008Z,76.74
2022-11-13T03:46:54.428Z,77.83
2022-11-13T03:49:20.903Z,77.04
2022-11-13T03:51:47.387Z,76.74
2022-11-13T03:54:13.867Z,75.50
2022-11-13T03:56:40.314Z,74.62
2022-11-13T03:59:06.784Z,74.31
2022-11-13T04:01:33.260Z,73.23
2022-11-13T04:03:59.716Z,73.39
2022-11-13T04:06:26.207Z,73.15
2022-11-13T04:08:54.007Z,72.87
2022-11-13T04:11:20.501Z,73.65
2022-11-13T04:13:46.928Z,73.12
2022-11-13T04:16:13.593Z,73.00
2022-11-13T04:18:39.999Z,72.71
2022-11-13T04:21:06.518Z,72.98
2022-11-13T04:23:35.277Z,73.16
2022-11-13T04:26:01.691Z,73.44
2022-11-13T04:28:28.536Z,73.85
2022-11-13T04:30:57.157Z,73.12
2022-11-13T04:33:23.709Z,73.00
2022-11-13T04:35:50.123Z,73.23
2022-11-13T04:38:16.549Z,73.92
2022-11-13T04:40:43.347Z,74.33
2022-11-13T04:43:09.791Z,74.55
2022-11-13T04:45:36.968Z,73.64
2022-11-13T04:48:03.726Z,73.16
2022-11-13T04:50:30.440Z,73.32
2022-11-13T04:52:56.919Z,73.21
2022-11-13T04:55:23.480Z,72.77
2022-11-13T04:57:51.421Z,73.21
2022-11-13T05:00:18.209Z,72.84
2022-11-13T05:02:44.657Z,73.31
2022-11-13T05:05:11.073Z,72.85
2022-11-13T05:07:37.510Z,72.92
2022-11-13T05:10:04.475Z,72.34
2022-11-13T05:12:30.895Z,73.83
2022-11-13T05:14:57.318Z,74.48
2022-11-13T05:17:23.748Z,74.07
2022-11-13T05:19:50.236Z,74.31
2022-11-13T05:22:16.676Z,74.33
2022-11-13T05:24:43.158Z,74.66
2022-11-13T05:27:14.171Z,76.12
2022-11-13T05:29:43.528Z,75.72
2022-11-13T05:32:09.961Z,76.92
2022-11-13T05:34:36.395Z,75.55
2022-11-13T05:37:02.787Z,76.44
2022-11-13T05:39:29.192Z,75.40
2022-11-13T05:41:55.672Z,75.48
2022-11-13T05:44:22.075Z,75.24
2022-11-13T05:46:48.560Z,76.12
2022-11-13T05:49:15.513Z,75.78
2022-11-13T05:51:41.998Z,75.30
2022-11-13T05:54:08.761Z,76.39
2022-11-13T05:56:36.538Z,77.29
2022-11-13T05:59:04.176Z,76.73
2022-11-13T06:01:32.248Z,76.90
2022-11-13T06:04:00.636Z,76.56
2022-11-13T06:06:28.871Z,77.38
2022-11-13T06:08:56.441Z,76.78
2022-11-13T06:11:27.314Z,76.54
2022-11-13T06:13:55.116Z,76.69
2022-11-13T06:16:27.436Z,77.49
2022-11-13T06:18:59.370Z,76.65
2022-11-13T06:21:29.647Z,77.65
2022-11-13T06:24:00.257Z,77.50
2022-11-13T06:26:34.859Z,77.99
2022-11-13T06:29:03.013Z,77.93
2022-11-13T06:31:32.805Z,78.06
2022-11-13T06:33:59.804Z,78.73
2022-11-13T06:36:32.793Z,77.84
2022-11-13T06:39:00.007Z,77.82
2022-11-13T06:41:31.088Z,78.21
2022-11-13T06:44:02.634Z,77.60
2022-11-13T06:46:31.335Z,77.10
2022-11-13T06:48:58.182Z,77.73
2022-11-13T06:51:31.398Z,77.02
2022-11-13T06:53:58.478Z,77.15
2022-11-13T06:56:25.132Z,78.02
2022-11-13T06:58:51.874Z,78.24
2022-11-13T07:01:21.321Z,78.56
2022-11-13T07:03:48.476Z,78.70
2022-11-13T07:06:21.542Z,79.21
2022-11-13T07:08:48.703Z,80.09
2022-11-13T07:11:17.921Z,78.67
2022-11-13T07:13:45.496Z,79.12
2022-11-13T07:16:17.284Z,81.02
2022-11-13T07:18:44.729Z,81.23
2022-11-13T07:21:12.448Z,81.38
2022-11-13T07:23:43.013Z,80.66
2022-11-13T07:26:11.340Z,79.73
2022-11-13T07:28:38.413Z,79.14
2022-11-13T07:31:05.586Z,79.49
2022-11-13T07:33:32.260Z,78.79
2022-11-13T07:35:59.823Z,79.36
2022-11-13T07:38:26.850Z,78.37
2022-11-13T07:40:53.828Z,79.57
2022-11-13T07:43:20.498Z,81.52
2022-11-13T07:45:46.957Z,80.50
2022-11-13T07:48:13.400Z,80.44
2022-11-13T07:50:40.053Z,80.38
2022-11-13T07:53:08.702Z,80.04
2022-11-13T07:55:35.846Z,80.03
2022-11-13T07:58:03.426Z,80.89
2022-11-13T08:00:31.857Z,81.36
2022-11-13T08:02:58.830Z,82.06
2022-11-13T08:05:25.275Z,81.32
2022-11-13T08:07:52.332Z,80.88
2022-11-13T08:10:20.025Z,80.91
2022-11-13T08:12:47.224Z,80.91
2022-11-13T08:15:14.412Z,79.88
2022-11-13T08:17:40.982Z,82.23
2022-11-13T08:20:08.994Z,81.15
2022-11-13T08:22:35.583Z,80.83
2022-11-13T08:25:02.125Z,79.96
2022-11-13T08:27:28.521Z,79.89
2022-11-13T08:29:54.993Z,81.32
2022-11-13T08:32:22.534Z,80.54
2022-11-13T08:34:49.299Z,79.16
2022-11-13T08:37:16.024Z,78.56
2022-11-13T08:39:42.547Z,79.15
2022-11-13T08:42:08.989Z,79.20
2022-11-13T08:44:35.415Z,80.03
2022-11-13T08:47:01.860Z,78.29
2022-11-13T08:52:03.720Z,80.60
2022-11-13T08:54:30.206Z,80.99
2022-11-13T08:56:59.650Z,80.29
2022-11-13T08:59:28.518Z,80.21
2022-11-13T09:01:59.262Z,79.79
2022-11-13T09:04:26.481Z,81.24
2022-11-13T09:06:53.122Z,82.33
2022-11-13T09:09:20.205Z,82.05
2022-11-13T09:11:46.717Z,82.58
2022-11-13T09:14:13.241Z,80.66
2022-11-13T09:16:39.958Z,80.70
2022-11-13T09:19:06.459Z,80.93
2022-11-13T09:21:32.901Z,79.42
2022-11-13T09:23:59.381Z,79.97
2022-11-13T09:26:25.837Z,80.84
2022-11-13T09:28:52.365Z,79.81
2022-11-13T09:31:18.830Z,79.49
2022-11-13T09:33:45.270Z,79.24
2022-11-13T09:36:14.227Z,80.93
2022-11-13T09:38:41.245Z,78.71
2022-11-13T09:41:20.501Z,80.76
2022-11-13T09:43:59.235Z,79.83
2022-11-13T09:46:40.507Z,80.21
2022-11-13T09:49:25.340Z,79.52
2022-11-13T09:51:55.694Z,79.76
2022-11-13T09:54:22.776Z,80.98
2022-11-13T09:57:04.165Z,81.50
2022-11-13T09:59:39.672Z,81.65
2022-11-13T10:02:34.237Z,80.45
2022-11-13T10:05:04.888Z,80.50
2022-11-13T10:07:57.960Z,79.81
2022-11-13T10:11:01.961Z,78.62
2022-11-13T10:13:59.661Z,80.04
2022-11-13T10:16:33.995Z,78.83
2022-11-13T10:19:19.840Z,78.29
2022-11-13T10:22:07.727Z,80.66
2022-11-13T10:24:43.156Z,80.25
2022-11-13T10:27:11.859Z,79.26
2022-11-13T10:29:39.003Z,78.67
2022-11-13T10:32:29.321Z,78.39
2022-11-13T10:35:23.186Z,78.72
2022-11-13T10:38:18.232Z,79.18
2022-11-13T10:40:44.755Z,79.54
2022-11-13T10:43:19.740Z,78.16
2022-11-13T10:46:04.934Z,77.93
2022-11-13T10:48:33.803Z,76.86
2022-11-13T10:51:04.413Z,76.80
2022-11-13T10:53:42.082Z,77.29
2022-11-13T10:56:34.784Z,75.95
2022-11-13T10:59:14.388Z,76.38
2022-11-13T11:01:43.658Z,76.71
2022-11-13T11:04:19.362Z,77.45
2022-11-13T11:07:18.552Z,78.06
2022-11-13T11:09:38.397Z,79.32
2022-11-13T11:12:17.091Z,79.83
2022-11-13T11:14:57.652Z,78.12
2022-11-13T11:17:51.084Z,79.00
2022-11-13T11:20:36.246Z,79.75
2022-11-13T11:23:21.846Z,79.32
2022-11-13T11:26:08.475Z,79.73
2022-11-13T11:28:46.097Z,77.90
2022-11-13T11:31:23.236Z,78.50
2022-11-13T11:33:56.628Z,78.53
2022-11-13T11:36:23.109Z,78.85
2022-11-13T11:39:31.195Z,78.39
2022-11-13T11:42:10.089Z,77.95
2022-11-13T11:44:50.284Z,78.83
2022-11-13T11:47:18.037Z,78.04
2022-11-13T11:49:45.167Z,76.83
2022-11-13T11:52:31.720Z,75.91
2022-11-13T11:55:04.308Z,76.77
2022-11-13T11:57:33.724Z,76.75
2022-11-13T12:00:06.297Z,75.96
2022-11-13T12:02:47.710Z,76.04
2022-11-13T12:05:29.646Z,75.66
2022-11-13T12:08:05.973Z,76.41
2022-11-13T12:10:38.283Z,75.55
2022-11-13T12:13:16.656Z,76.97
2022-11-13T12:16:00.891Z,76.35
2022-11-13T12:18:47.736Z,75.06
2022-11-13T12:21:29.529Z,75.75
2022-11-13T12:24:01.794Z,76.07
2022-11-13T12:26:47.248Z,78.01
2022-11-13T12:29:19.404Z,75.97
2022-11-13T12:31:53.572Z,74.65
2022-11-13T12:34:29.078Z,74.74
2022-11-13T12:36:56.505Z,76.11
2022-11-13T12:39:45.609Z,75.98
2022-11-13T12:42:21.405Z,76.64
2022-11-13T12:45:19.657Z,76.40
2022-11-13T12:47:49.630Z,76.30
2022-11-13T12:50:32.741Z,75.50
2022-11-13T12:53:05.678Z,76.56
2022-11-13T12:55:34.854Z,75.04
2022-11-13T12:58:21.474Z,76.76
2022-11-13T13:01:17.582Z,76.83
2022-11-13T13:04:00.875Z,77.89
2022-11-13T13:07:01.314Z,76.69
2022-11-13T13:09:52.182Z,76.57
2022-11-13T13:12:42.436Z,76.04
2022-11-13T13:15:23.152Z,76.48
2022-11-13T13:17:49.563Z,76.58
2022-11-13T13:20:15.945Z,76.16
2022-11-13T13:22:42.406Z,78.01
2022-11-13T13:25:28.025Z,81.17
2022-11-13T13:28:04.220Z,79.87
2022-11-13T13:30:46.158Z,82.52
2022-11-13T13:33:26.727Z,78.18
2022-11-13T13:36:22.924Z,77.43
2022-11-13T13:39:19.019Z,77.97
2022-11-13T13:41:51.188Z,80.94
2022-11-13T13:44:32.893Z,78.76
2022-11-13T13:46:59.585Z,78.29
2022-11-13T13:49:28.640Z,79.07
2022-11-13T13:51:57.329Z,79.59
2022-11-13T13:54:29.042Z,81.85
2022-11-13T13:56:57.804Z,80.28
2022-11-13T13:59:33.296Z,83.38
2022-11-13T14:02:02.140Z,83.81
2022-11-13T14:04:32.902Z,82.93
2022-11-13T14:07:01.543Z,82.12
2022-11-13T14:09:30.317Z,80.54
2022-11-13T14:11:58.345Z,79.14
2022-11-13T14:14:25.590Z,80.16
2022-11-13T14:16:54.031Z,79.69
2022-11-13T14:19:20.818Z,80.41
2022-11-13T14:21:50.264Z,81.39
2022-11-13T14:24:27.704Z,80.82
2022-11-13T14:26:56.407Z,82.31
2022-11-13T14:29:32.384Z,80.94
2022-11-13T14:32:10.521Z,79.29
2022-11-13T14:34:37.944Z,82.17
2022-11-13T14:37:13.936Z,80.71
2022-11-13T14:39:40.529Z,78.95
2022-11-13T14:42:07.001Z,77.07
2022-11-13T14:44:34.801Z,78.14
2022-11-13T14:47:20.423Z,78.82
2022-11-13T14:49:46.873Z,80.35
2022-11-13T14:52:25.014Z,80.60
2022-11-13T14:55:18.535Z,79.35
2022-11-13T14:57:49.447Z,78.75
2022-11-13T15:00:26.866Z,79.08
2022-11-13T15:02:53.322Z,79.53
2022-11-13T15:05:19.751Z,80.90
2022-11-13T15:07:46.784Z,81.17
2022-11-13T15:10:16.353Z,80.09
2022-11-13T15:12:42.847Z,79.45
2022-11-13T15:15:15.163Z,78.37
2022-11-13T15:17:43.450Z,78.80
2022-11-13T15:20:18.474Z,78.99
2022-11-13T15:22:45.146Z,80.30
2022-11-13T15:25:16.595Z,78.59
2022-11-13T15:27:43.581Z,78.69
2022-11-13T15:30:11.202Z,78.42
2022-11-13T15:32:38.126Z,78.94
2022-11-13T15:35:06.343Z,79.53
2022-11-13T15:37:33.487Z,79.33
2022-11-13T15:40:00.031Z,78.96
2022-11-13T15:42:33.075Z,80.67
2022-11-13T15:44:59.612Z,81.29
2022-11-13T15:47:26.354Z,80.72
2022-11-13T15:50:12.534Z,80.10
2022-11-13T15:52:41.876Z,79.76
2022-11-13T15:55:19.700Z,80.30
2022-11-13T15:57:46.297Z,79.28
2022-11-13T16:00:17.103Z,78.23
2022-11-13T16:02:43.583Z,79.24
2022-11-13T16:05:10.321Z,79.89
2022-11-13T16:07:39.869Z,79.80
2022-11-13T16:10:10.613Z,79.04
2022-11-13T16:12:37.025Z,78.08
2022-11-13T16:15:03.894Z,76.95
2022-11-13T16:17:42.172Z,81.55
2022-11-13T16:20:16.459Z,78.54
2022-11-13T16:22:43.991Z,78.00
2022-11-13T16:25:17.323Z,78.33
2022-11-13T16:27:43.820Z,79.86
2022-11-13T16:30:15.494Z,76.79
2022-11-13T16:32:42.003Z,77.43
2022-11-13T16:35:15.689Z,80.19
2022-11-13T16:37:42.721Z,76.52
2022-11-13T16:40:20.649Z,75.72
2022-11-13T16:42:47.296Z,76.69
2022-11-13T16:45:13.799Z,78.07
2022-11-13T16:47:40.298Z,77.70
2022-11-13T16:50:18.584Z,76.44
2022-11-13T16:52:45.126Z,75.67
2022-11-13T16:55:11.622Z,77.31
2022-11-13T16:57:38.215Z,78.28
2022-11-13T17:00:07.274Z,77.70
2022-11-13T17:02:33.805Z,77.52
2022-11-13T17:05:00.263Z,76.74
2022-11-13T17:07:26.990Z,76.88
2022-11-13T17:10:16.524Z,76.29
2022-11-13T17:12:40.137Z,77.57
2022-11-13T17:15:07.047Z,77.22
2022-11-13T17:17:33.505Z,77.45
2022-11-13T17:19:59.920Z,76.67
2022-11-13T17:22:26.397Z,75.14
2022-11-13T17:24:52.840Z,75.72
2022-11-13T17:27:19.244Z,74.90
2022-11-13T17:29:45.668Z,75.45
2022-11-13T17:32:12.093Z,74.36
2022-11-13T17:34:38.530Z,74.16
2022-11-13T17:37:04.977Z,73.56
2022-11-13T17:39:31.432Z,73.06
2022-11-13T17:41:57.880Z,72.91
2022-11-13T17:44:24.356Z,73.28
2022-11-13T17:46:51.943Z,73.54
2022-11-13T17:49:18.429Z,73.91
2022-11-13T17:51:44.870Z,73.51
2022-11-13T17:54:11.338Z,73.20
2022-11-13T17:56:38.473Z,73.21
2022-11-13T17:59:05.030Z,73.57
2022-11-13T18:01:33.548Z,74.38
2022-11-13T18:04:00.232Z,75.52
2022-11-13T18:06:26.744Z,74.53
2022-11-13T18:08:53.233Z,75.76
2022-11-13T18:11:22.403Z,74.51
2022-11-13T18:13:50.781Z,73.35
2022-11-13T18:16:34.451Z,73.52
2022-11-13T18:19:03.602Z,73.48
2022-11-13T18:21:32.811Z,73.50
2022-11-13T18:24:03.592Z,72.94
2022-11-13T18:26:31.316Z,72.38
2022-11-13T18:28:58.537Z,72.50
2022-11-13T18:31:25.508Z,72.77
2022-11-13T18:33:52.066Z,72.26
2022-11-13T18:36:18.767Z,73.59
2022-11-13T18:38:45.277Z,76.37
2022-11-13T18:41:15.297Z,76.33
2022-11-13T18:43:46.509Z,74.80
2022-11-13T18:46:14.580Z,73.51
2022-11-13T18:48:42.895Z,73.17
2022-11-13T18:51:17.847Z,73.24
2022-11-13T18:53:45.701Z,73.34
2022-11-13T18:56:15.079Z,74.27
2022-11-13T18:58:43.000Z,73.91
2022-11-13T19:01:21.596Z,73.25
2022-11-13T19:06:37.795Z,73.67
2022-11-13T19:09:12.553Z,73.09
2022-11-13T19:11:39.885Z,72.29
2022-11-13T19:14:07.449Z,71.98
2022-11-13T19:16:36.944Z,73.33
2022-11-13T19:19:24.163Z,74.06
2022-11-13T19:21:51.033Z,73.41
2022-11-13T19:24:17.736Z,73.37
2022-11-13T19:26:44.937Z,73.17
2022-11-13T19:29:11.735Z,72.94
2022-11-13T19:31:38.263Z,73.26
2022-11-13T19:34:07.120Z,73.01
2022-11-13T19:36:34.522Z,73.03
2022-11-13T19:39:01.116Z,72.44
2022-11-13T19:41:29.076Z,72.84
2022-11-13T19:43:58.069Z,72.05
2022-11-13T19:46:24.509Z,72.49
2022-11-13T19:48:51.812Z,72.59
2022-11-13T19:51:23.529Z,72.24
2022-11-13T19:53:54.824Z,72.12
2022-11-13T19:56:22.464Z,73.53
2022-11-13T19:58:50.407Z,73.03
2022-11-13T20:01:20.030Z,72.75
2022-11-13T20:03:46.638Z,74.21
2022-11-13T20:06:16.822Z,74.25
2022-11-13T20:08:43.890Z,73.34
2022-11-13T20:11:11.929Z,74.87
2022-11-13T20:13:39.240Z,74.67
2022-11-13T20:16:06.890Z,74.25
2022-11-13T20:18:33.474Z,73.72
2022-11-13T20:21:00.482Z,73.26
2022-11-13T20:23:27.061Z,73.55
2022-11-13T20:26:04.563Z,73.28
2022-11-13T20:28:31.827Z,73.98
2022-11-13T20:31:19.433Z,73.21
2022-11-13T20:33:47.432Z,73.62
2022-11-13T20:36:15.009Z,73.58
2022-11-13T20:38:44.235Z,73.29
2022-11-13T20:41:11.308Z,72.88
2022-11-13T20:43:38.040Z,73.13
2022-11-13T20:46:11.978Z,74.64
2022-11-13T20:48:38.548Z,74.50
2022-11-13T20:51:22.303Z,74.67
2022-11-13T20:53:49.148Z,75.85
2022-11-13T20:56:17.266Z,75.95
2022-11-13T20:58:43.904Z,75.76
2022-11-13T21:01:30.254Z,75.18
2022-11-13T21:03:59.392Z,75.56
2022-11-13T21:06:25.919Z,74.75
2022-11-13T21:08:56.672Z,76.43
2022-11-13T21:11:27.589Z,76.57
2022-11-13T21:13:55.446Z,77.09
2022-11-13T21:16:22.562Z,76.49
2022-11-13T21:18:49.196Z,76.87
2022-11-13T21:21:21.448Z,79.38
2022-11-13T21:23:48.737Z,76.61
2022-11-13T21:26:15.675Z,76.57
2022-11-13T21:28:42.911Z,75.67
2022-11-13T21:31:19.448Z,78.70
2022-11-13T21:33:47.178Z,79.54
2022-11-13T21:36:19.848Z,81.66
2022-11-13T21:38:46.472Z,82.96
2022-11-13T21:41:24.854Z,82.57
2022-11-13T21:43:58.540Z,84.22
2022-11-13T21:46:30.774Z,82.02
2022-11-13T21:48:59.794Z,85.20
2022-11-13T21:51:26.620Z,85.03
2022-11-13T21:53:53.108Z,83.57
2022-11-13T21:56:19.595Z,85.75
2022-11-13T21:58:46.021Z,83.92
2022-11-13T22:01:13.364Z,84.09
2022-11-13T22:03:40.121Z,83.28
2022-11-13T22:06:26.218Z,83.78
2022-11-13T22:08:57.869Z,83.61
2022-11-13T22:11:27.803Z,82.54
2022-11-13T22:13:54.571Z,82.84
2022-11-13T22:16:22.197Z,81.74
2022-11-13T22:18:52.533Z,82.61
2022-11-13T22:21:18.976Z,84.09
2022-11-13T22:23:45.413Z,82.05
2022-11-13T22:26:14.440Z,82.63
2022-11-13T22:28:42.413Z,83.32
2022-11-13T22:31:16.322Z,83.06
2022-11-13T22:33:47.788Z,82.48
2022-11-13T22:36:20.316Z,83.09
2022-11-13T22:38:47.212Z,82.91
2022-11-13T22:41:23.166Z,82.75
2022-11-13T22:43:56.807Z,82.97
2022-11-13T22:46:25.721Z,83.16
2022-11-13T22:48:54.148Z,84.01
2022-11-13T22:51:30.076Z,83.25
2022-11-13T22:54:02.025Z,83.47
2022-11-13T22:56:30.690Z,85.20
2022-11-13T22:59:00.556Z,83.62
2022-11-13T23:01:32.500Z,84.53
2022-11-13T23:04:02.015Z,82.97
2022-11-13T23:06:30.932Z,83.02
2022-11-13T23:08:57.883Z,82.26
2022-11-13T23:11:33.024Z,83.88
2022-11-13T23:14:02.214Z,82.62
2022-11-13T23:16:30.215Z,82.47
2022-11-13T23:18:58.344Z,82.78
2022-11-13T23:21:28.124Z,81.49
2022-11-13T23:23:55.252Z,81.17
2022-11-13T23:26:22.591Z,84.03
2022-11-13T23:28:49.090Z,83.33
2022-11-13T23:31:15.709Z,82.21
2022-11-13T23:33:42.750Z,82.06
2022-11-13T23:36:11.234Z,83.20
2022-11-13T23:38:37.817Z,82.15
2022-11-13T23:41:04.661Z,79.88
2022-11-13T23:43:54.343Z,80.66
2022-11-13T23:46:17.808Z,81.43
2022-11-13T23:48:44.217Z,81.26
2022-11-13T23:51:10.771Z,79.51
2022-11-13T23:53:37.233Z,78.59
2022-11-13T23:56:03.980Z,78.34
2022-11-13T23:58:32.489Z,78.28
